createdAt,value
2022-11-07T00:00:18.532Z,99870.03
2022-11-07T00:02:21.712Z,99870.16
2022-11-07T00:04:26.248Z,99874.56
2022-11-07T00:06:29.234Z,99862.97
2022-11-07T00:08:33.165Z,99862.22
2022-11-07T00:10:36.172Z,99859.66
2022-11-07T00:12:39.307Z,99867.44
2022-11-07T00:14:42.251Z,99858.88
2022-11-07T00:16:46.102Z,99871.38
2022-11-07T00:18:49.195Z,99866.03
2022-11-07T00:20:53.823Z,99867.03
2022-11-07T00:22:57.192Z,99874.31
2022-11-07T00:25:00.276Z,99869.03
2022-11-07T00:27:03.378Z,99868.22
2022-11-07T00:29:07.631Z,99883.03
2022-11-07T00:31:12.451Z,99882.13
2022-11-07T00:33:15.887Z,99886.28
2022-11-07T00:35:19.383Z,99884.59
2022-11-07T00:37:23.641Z,99913.81
2022-11-07T00:39:26.622Z,99890.72
2022-11-07T00:41:29.708Z,99889.56
2022-11-07T00:43:32.938Z,99891.28
2022-11-07T00:45:35.955Z,99899.50
2022-11-07T00:47:39.044Z,99891.41
2022-11-07T00:49:42.162Z,99900.44
2022-11-07T00:51:45.071Z,99898.34
2022-11-07T00:53:49.453Z,99902.91
2022-11-07T00:55:53.444Z,99908.13
2022-11-07T00:57:57.944Z,99915.19
2022-11-07T01:00:00.766Z,99911.53
2022-11-07T01:02:06.175Z,99892.97
2022-11-07T01:04:45.615Z,99906.34
2022-11-07T01:06:48.681Z,99910.50
2022-11-07T01:08:54.955Z,99920.03
2022-11-07T01:10:58.058Z,99912.13
2022-11-07T01:13:01.024Z,99919.25
2022-11-07T01:15:04.761Z,99921.81
2022-11-07T01:17:07.947Z,99923.63
2022-11-07T01:19:11.564Z,99921.00
2022-11-07T01:21:16.668Z,99920.91
2022-11-07T01:23:20.103Z,99924.53
2022-11-07T01:25:24.522Z,99916.50
2022-11-07T01:27:27.636Z,99931.31
2022-11-07T01:29:30.920Z,99928.59
2022-11-07T01:31:33.999Z,99939.25
2022-11-07T01:33:37.433Z,99930.31
2022-11-07T01:35:41.478Z,99921.78
2022-11-07T01:37:44.456Z,99926.91
2022-11-07T01:39:47.316Z,99921.59
2022-11-07T01:41:51.542Z,99923.31
2022-11-07T01:43:57.937Z,99920.81
2022-11-07T01:46:00.886Z,99922.84
2022-11-07T01:48:04.691Z,99921.94
2022-11-07T01:50:08.943Z,99914.03
2022-11-07T01:52:15.641Z,99924.59
2022-11-07T01:54:21.771Z,99924.84
2022-11-07T01:56:27.323Z,99928.47
2022-11-07T01:58:31.815Z,99915.97
2022-11-07T02:00:35.919Z,99912.31
2022-11-07T02:02:39.587Z,99920.16
2022-11-07T02:04:44.432Z,99922.00
2022-11-07T02:06:49.332Z,99931.50
2022-11-07T02:08:54.032Z,99914.72
2022-11-07T02:11:00.040Z,99924.56
2022-11-07T02:13:03.941Z,99916.91
2022-11-07T02:15:10.532Z,99915.78
2022-11-07T02:17:15.651Z,99918.59
2022-11-07T02:19:23.412Z,99916.19
2022-11-07T02:21:33.323Z,99914.34
2022-11-07T02:23:40.529Z,99911.19
2022-11-07T02:25:47.118Z,99905.78
2022-11-07T02:27:53.172Z,99920.69
2022-11-07T02:29:59.522Z,99915.31
2022-11-07T02:32:04.132Z,99921.56
2022-11-07T02:34:09.089Z,99931.47
2022-11-07T02:36:15.192Z,99927.75
2022-11-07T02:38:21.131Z,99919.06
2022-11-07T02:40:24.775Z,99917.50
2022-11-07T02:42:43.223Z,99928.69
2022-11-07T02:44:46.666Z,99924.34
2022-11-07T02:46:49.678Z,99918.91
2022-11-07T02:48:55.639Z,99913.78
2022-11-07T02:50:58.660Z,99920.75
2022-11-07T02:53:01.874Z,99922.47
2022-11-07T02:55:05.291Z,99917.13
2022-11-07T02:57:08.275Z,99916.19
2022-11-07T02:59:12.550Z,99914.41
2022-11-07T03:01:16.624Z,99921.56
2022-11-07T03:03:19.875Z,99918.19
2022-11-07T03:05:22.917Z,99921.09
2022-11-07T03:07:25.840Z,99920.84
2022-11-07T03:09:28.677Z,99932.19
2022-11-07T03:11:31.812Z,99918.91
2022-11-07T03:13:35.710Z,99924.34
2022-11-07T03:15:40.047Z,99927.00
2022-11-07T03:17:43.411Z,99927.75
2022-11-07T03:19:46.372Z,99939.09
2022-11-07T03:21:50.964Z,99924.19
2022-11-07T03:23:54.045Z,99936.53
2022-11-07T03:25:57.067Z,99933.03
2022-11-07T03:28:00.365Z,99936.53
2022-11-07T03:30:03.443Z,99941.72
2022-11-07T03:32:09.120Z,99948.75
2022-11-07T03:34:12.174Z,99937.22
2022-11-07T03:36:15.394Z,99949.66
2022-11-07T03:38:18.572Z,99946.72
2022-11-07T03:40:21.524Z,99941.56
2022-11-07T03:42:24.538Z,99950.28
2022-11-07T03:44:27.418Z,99945.00
2022-11-07T03:46:30.311Z,99944.16
2022-11-07T03:48:34.775Z,99944.16
2022-11-07T03:50:37.603Z,99946.72
2022-11-07T03:52:40.589Z,99949.28
2022-11-07T03:54:43.743Z,99953.88
2022-11-07T03:56:46.664Z,99939.00
2022-11-07T03:58:49.529Z,99938.31
2022-11-07T04:00:52.500Z,99949.66
2022-11-07T04:02:55.548Z,99951.50
2022-11-07T04:04:59.845Z,99954.16
2022-11-07T04:07:02.964Z,99956.78
2022-11-07T04:09:05.935Z,99956.16
2022-11-07T04:11:28.862Z,99960.53
2022-11-07T04:13:49.065Z,99969.66
2022-11-07T04:16:14.983Z,99960.88
2022-11-07T04:18:20.208Z,99961.91
2022-11-07T04:20:24.695Z,99967.94
2022-11-07T04:22:27.902Z,99967.19
2022-11-07T04:24:31.375Z,99963.59
2022-11-07T04:26:51.445Z,99966.25
2022-11-07T04:28:54.353Z,99964.53
2022-11-07T04:30:57.534Z,99968.16
2022-11-07T04:33:01.984Z,99958.31
2022-11-07T04:35:06.446Z,99960.31
2022-11-07T04:37:10.950Z,99964.63
2022-11-07T04:39:14.377Z,99973.38
2022-11-07T04:41:21.483Z,99961.91
2022-11-07T04:43:24.581Z,99961.91
2022-11-07T04:45:27.515Z,99972.47
2022-11-07T04:47:30.743Z,99973.00
2022-11-07T04:49:33.814Z,99974.72
2022-11-07T04:51:43.114Z,99974.44
2022-11-07T04:53:47.393Z,99961.16
2022-11-07T04:55:51.785Z,99963.00
2022-11-07T04:57:55.864Z,99958.66
2022-11-07T04:59:59.347Z,99962.22
2022-11-07T05:02:02.629Z,99952.44
2022-11-07T05:04:05.903Z,99952.53
2022-11-07T05:06:10.243Z,99958.50
2022-11-07T05:08:13.121Z,99955.31
2022-11-07T05:10:21.681Z,99952.81
2022-11-07T05:12:24.617Z,99948.22
2022-11-07T05:14:27.457Z,99958.72
2022-11-07T05:16:31.759Z,99962.16
2022-11-07T05:18:34.670Z,99976.38
2022-11-07T05:20:39.178Z,99954.16
2022-11-07T05:22:59.545Z,99958.66
2022-11-07T05:25:02.837Z,99951.50
2022-11-07T05:27:07.297Z,99947.25
2022-11-07T05:29:11.803Z,99963.00
2022-11-07T05:31:17.570Z,99950.44
2022-11-07T05:33:21.220Z,99957.72
2022-11-07T05:35:24.647Z,99952.59
2022-11-07T05:37:27.593Z,99957.72
2022-11-07T05:39:31.952Z,99954.16
2022-11-07T05:41:37.184Z,99954.03
2022-11-07T05:43:41.997Z,99960.06
2022-11-07T05:45:44.971Z,99949.50
2022-11-07T05:47:48.029Z,99955.72
2022-11-07T05:49:51.108Z,99966.28
2022-11-07T05:51:54.576Z,99960.13
2022-11-07T05:53:57.431Z,99966.13
2022-11-07T05:56:00.361Z,99963.47
2022-11-07T05:58:09.108Z,99971.25
2022-11-07T06:00:18.645Z,99971.25
2022-11-07T06:02:21.728Z,99978.34
2022-11-07T06:04:24.736Z,99973.88
2022-11-07T06:06:27.936Z,99965.84
2022-11-07T06:08:32.048Z,99974.56
2022-11-07T06:10:35.265Z,99966.47
2022-11-07T06:12:38.461Z,99980.59
2022-11-07T06:14:41.734Z,99980.50
2022-11-07T06:16:46.217Z,99977.94
2022-11-07T06:18:49.475Z,99984.09
2022-11-07T06:20:52.997Z,99974.06
2022-11-07T06:22:58.762Z,99971.44
2022-11-07T06:25:01.836Z,99978.25
2022-11-07T06:27:04.923Z,99995.13
2022-11-07T06:29:08.126Z,99978.44
2022-11-07T06:31:11.510Z,99979.19
2022-11-07T06:33:19.030Z,99977.50
2022-11-07T06:35:22.400Z,99980.16
2022-11-07T06:37:27.381Z,99977.25
2022-11-07T06:39:30.589Z,99986.09
2022-11-07T06:41:33.518Z,99991.22
2022-11-07T06:43:36.714Z,99986.78
2022-11-07T06:45:41.513Z,99989.97
2022-11-07T06:47:48.206Z,99989.00
2022-11-07T06:49:52.778Z,99989.59
2022-11-07T06:51:56.869Z,100012.44
2022-11-07T06:54:00.987Z,99992.00
2022-11-07T06:56:08.101Z,99997.84
2022-11-07T06:58:11.932Z,100005.69
2022-11-07T07:00:16.305Z,100003.81
2022-11-07T07:02:37.186Z,99992.47
2022-11-07T07:04:42.148Z,100000.97
2022-11-07T07:06:46.784Z,99999.03
2022-11-07T07:08:49.738Z,100000.66
2022-11-07T07:10:52.876Z,100005.84
2022-11-07T07:12:56.646Z,100004.16
2022-11-07T07:14:59.616Z,100014.56
2022-11-07T07:17:02.518Z,100008.25
2022-11-07T07:19:05.747Z,100001.72
2022-11-07T07:21:10.003Z,100018.44
2022-11-07T07:23:14.244Z,100015.41
2022-11-07T07:25:17.250Z,100017.38
2022-11-07T07:27:20.302Z,100012.69
2022-11-07T07:29:23.727Z,100016.94
2022-11-07T07:31:31.260Z,100017.81
2022-11-07T07:33:34.169Z,100016.81
2022-11-07T07:35:37.199Z,100017.47
2022-11-07T07:37:40.498Z,100018.44
2022-11-07T07:39:45.065Z,100018.34
2022-11-07T07:41:50.017Z,100020.78
2022-11-07T07:43:56.829Z,100028.47
2022-11-07T07:46:00.336Z,100016.84
2022-11-07T07:48:04.527Z,100021.75
2022-11-07T07:50:09.264Z,100016.13
2022-11-07T07:52:12.198Z,100025.69
2022-11-07T07:54:15.396Z,100022.72
2022-11-07T07:56:19.721Z,100010.16
2022-11-07T07:58:22.767Z,100018.81
2022-11-07T08:00:25.997Z,100024.19
2022-11-07T08:02:29.775Z,100024.09
2022-11-07T08:04:32.676Z,100019.19
2022-11-07T08:06:37.787Z,100006.88
2022-11-07T08:08:40.685Z,100020.03
2022-11-07T08:10:43.879Z,100023.13
2022-11-07T08:12:49.264Z,100021.25
2022-11-07T08:14:52.200Z,100011.44
2022-11-07T08:16:55.326Z,100014.59
2022-11-07T08:18:58.684Z,100026.56
2022-11-07T08:21:01.589Z,100023.00
2022-11-07T08:23:08.668Z,100034.28
2022-11-07T08:25:15.695Z,100025.06
2022-11-07T08:27:18.964Z,100026.50
2022-11-07T08:29:23.513Z,100029.06
2022-11-07T08:31:28.965Z,100028.81
2022-11-07T08:33:33.170Z,100031.38
2022-11-07T08:35:42.100Z,100028.97
2022-11-07T08:37:45.676Z,100036.84
2022-11-07T08:39:49.768Z,100037.19
2022-11-07T08:41:52.801Z,100034.16
2022-11-07T08:43:57.285Z,100035.81
2022-11-07T08:46:01.551Z,100035.78
2022-11-07T08:48:05.067Z,100053.16
2022-11-07T08:50:08.862Z,100048.28
2022-11-07T08:52:12.097Z,100040.41
2022-11-07T08:54:15.252Z,100039.91
2022-11-07T08:56:18.572Z,100039.31
2022-11-07T08:58:25.895Z,100043.25
2022-11-07T09:00:32.061Z,100045.72
2022-11-07T09:04:59.988Z,100050.50
2022-11-07T09:07:02.917Z,100044.66
2022-11-07T09:09:05.906Z,100049.03
2022-11-07T09:11:08.820Z,100039.34
2022-11-07T09:13:11.732Z,100049.53
2022-11-07T09:15:15.124Z,100049.44
2022-11-07T09:17:18.283Z,100046.03
2022-11-07T09:19:22.609Z,100050.44
2022-11-07T09:21:25.446Z,100044.28
2022-11-07T09:23:28.646Z,100037.59
2022-11-07T09:25:31.485Z,100073.72
2022-11-07T09:27:34.819Z,100044.97
2022-11-07T09:29:37.679Z,100051.88
2022-11-07T09:31:40.571Z,100059.56
2022-11-07T09:33:43.398Z,100048.63
2022-11-07T09:35:48.101Z,100064.72
2022-11-07T09:37:51.648Z,100065.81
2022-11-07T09:39:54.498Z,100073.69
2022-11-07T09:42:00.706Z,100075.06
2022-11-07T09:44:17.685Z,100073.88
2022-11-07T09:46:29.384Z,100079.84
2022-11-07T09:48:38.635Z,100086.84
2022-11-07T09:50:43.834Z,100103.53
2022-11-07T09:52:53.423Z,100084.00
2022-11-07T09:55:01.703Z,100085.81
2022-11-07T09:57:05.124Z,100103.44
2022-11-07T09:59:14.014Z,100078.78
2022-11-07T10:01:19.199Z,100098.13
2022-11-07T10:03:22.480Z,100102.75
2022-11-07T10:05:30.633Z,100097.78
2022-11-07T10:07:41.506Z,100132.19
2022-11-07T10:09:51.179Z,100092.38
2022-11-07T10:12:00.355Z,100114.44
2022-11-07T10:14:11.571Z,100113.47
2022-11-07T10:16:20.275Z,100115.75
2022-11-07T10:18:33.678Z,100117.25
2022-11-07T10:20:44.644Z,100119.91
2022-11-07T10:22:57.518Z,100138.97
2022-11-07T10:25:14.982Z,100144.53
2022-11-07T10:27:17.922Z,100146.09
2022-11-07T10:29:22.017Z,100141.25
2022-11-07T10:31:25.732Z,100145.41
2022-11-07T10:33:37.475Z,100156.00
2022-11-07T10:35:44.693Z,100159.63
2022-11-07T10:37:55.538Z,100144.81
2022-11-07T10:39:58.494Z,100164.66
2022-11-07T10:42:07.012Z,100145.31
2022-11-07T10:44:14.965Z,100147.28
2022-11-07T10:46:20.500Z,100164.94
2022-11-07T10:48:23.373Z,100163.88
2022-11-07T10:50:26.985Z,100168.53
2022-11-07T10:52:30.876Z,100151.41
2022-11-07T10:54:34.060Z,100160.47
2022-11-07T10:56:45.769Z,100179.81
2022-11-07T10:58:50.332Z,100168.91
2022-11-07T11:01:02.065Z,100172.44
2022-11-07T11:03:17.345Z,100179.53
2022-11-07T11:05:26.511Z,100174.75
2022-11-07T11:07:35.456Z,100180.38
2022-11-07T11:09:39.310Z,100178.41
2022-11-07T11:11:42.196Z,100181.91
2022-11-07T11:13:45.109Z,100191.25
2022-11-07T11:15:49.339Z,100180.63
2022-11-07T11:18:01.048Z,100182.47
2022-11-07T11:20:04.217Z,100180.66
2022-11-07T11:22:13.047Z,100172.06
2022-11-07T11:24:32.705Z,100165.09
2022-11-07T11:26:37.729Z,100160.13
2022-11-07T11:28:43.352Z,100152.25
2022-11-07T11:30:49.856Z,100151.94
2022-11-07T11:32:57.787Z,100146.47
2022-11-07T11:35:07.188Z,100143.88
2022-11-07T11:37:13.170Z,100145.84
2022-11-07T11:39:26.321Z,100148.50
2022-11-07T11:41:33.864Z,100156.44
2022-11-07T11:43:43.021Z,100146.47
2022-11-07T11:46:06.966Z,100149.09
2022-11-07T11:48:16.388Z,100149.09
2022-11-07T11:50:22.044Z,100148.34
2022-11-07T11:52:27.606Z,100146.78
2022-11-07T11:54:30.568Z,100140.56
2022-11-07T11:56:42.971Z,100126.75
2022-11-07T11:58:52.512Z,100159.13
2022-11-07T12:01:01.674Z,100124.00
2022-11-07T12:03:28.346Z,100136.34
2022-11-07T12:05:47.166Z,100131.47
2022-11-07T12:07:56.648Z,100142.13
2022-11-07T12:10:03.372Z,100146.22
2022-11-07T12:12:17.625Z,100138.81
2022-11-07T12:15:02.528Z,100133.91
2022-11-07T12:17:10.883Z,100140.25
2022-11-07T12:19:19.818Z,100138.44
2022-11-07T12:21:30.796Z,100141.56
2022-11-07T12:23:48.678Z,100141.94
2022-11-07T12:25:56.294Z,100137.22
2022-11-07T12:28:04.807Z,100140.84
2022-11-07T12:30:19.714Z,100138.78
2022-11-07T12:32:31.796Z,100136.94
2022-11-07T12:34:44.174Z,100130.91
2022-11-07T12:36:57.941Z,100130.38
2022-11-07T12:39:11.093Z,100131.16
2022-11-07T12:41:20.297Z,100138.19
2022-11-07T12:43:34.085Z,100134.13
2022-11-07T12:45:47.921Z,100132.69
2022-11-07T12:48:13.512Z,100125.41
2022-11-07T12:50:28.486Z,100119.47
2022-11-07T12:52:41.872Z,100118.31
2022-11-07T12:54:49.590Z,100110.00
2022-11-07T12:56:54.176Z,100109.16
2022-11-07T12:58:57.395Z,100097.69
2022-11-07T13:01:01.167Z,100097.75
2022-11-07T13:03:33.368Z,100091.13
2022-11-07T13:05:49.520Z,100095.25
2022-11-07T13:07:56.139Z,100094.06
2022-11-07T13:10:04.949Z,100088.19
2022-11-07T13:12:12.869Z,100089.44
2022-11-07T13:14:30.142Z,100085.22
2022-11-07T13:16:36.045Z,100091.72
2022-11-07T13:20:48.889Z,100101.84
2022-11-07T13:22:53.194Z,100100.91
2022-11-07T13:25:13.480Z,100101.94
2022-11-07T13:27:23.323Z,100101.44
2022-11-07T13:29:34.466Z,100099.91
2022-11-07T13:31:39.244Z,100099.25
2022-11-07T13:33:43.851Z,100089.28
2022-11-07T13:35:54.515Z,100092.88
2022-11-07T13:38:04.481Z,100090.06
2022-11-07T13:40:22.238Z,100087.75
2022-11-07T13:42:28.295Z,100091.16
2022-11-07T13:44:37.672Z,100088.38
2022-11-07T13:46:46.065Z,100087.03
2022-11-07T13:48:54.605Z,100092.16
2022-11-07T13:51:02.910Z,100096.41
2022-11-07T13:53:07.892Z,100092.38
2022-11-07T13:55:15.215Z,100091.41
2022-11-07T13:57:20.679Z,100088.53
2022-11-07T13:59:39.124Z,100106.59
2022-11-07T14:01:44.670Z,100100.34
2022-11-07T14:03:48.076Z,100098.81
2022-11-07T14:05:53.280Z,100107.91
2022-11-07T14:08:00.769Z,100105.22
2022-11-07T14:10:07.335Z,100106.06
2022-11-07T14:12:18.750Z,100102.03
2022-11-07T14:14:24.402Z,100103.13
2022-11-07T14:16:30.804Z,100100.34
2022-11-07T14:18:35.789Z,100107.97
2022-11-07T14:20:38.753Z,100108.63
2022-11-07T14:22:49.778Z,100109.38
2022-11-07T14:24:54.996Z,100101.00
2022-11-07T14:27:00.135Z,100104.81
2022-11-07T14:29:04.648Z,100102.78
2022-11-07T14:31:09.156Z,100106.50
2022-11-07T14:33:18.630Z,100104.50
2022-11-07T14:35:23.863Z,100113.03
2022-11-07T14:37:28.210Z,100102.31
2022-11-07T14:39:33.654Z,100103.19
2022-11-07T14:41:40.435Z,100094.34
2022-11-07T14:43:43.700Z,100097.19
2022-11-07T14:46:11.445Z,100101.66
2022-11-07T14:48:11.563Z,100099.19
2022-11-07T14:50:17.343Z,100097.31
2022-11-07T14:52:23.361Z,100102.63
2022-11-07T14:54:30.004Z,100098.28
2022-11-07T14:56:36.688Z,100107.16
2022-11-07T14:58:39.796Z,100103.75
2022-11-07T15:00:52.704Z,100098.06
2022-11-07T15:02:57.537Z,100107.94
2022-11-07T15:05:09.730Z,100108.69
2022-11-07T15:07:22.952Z,100102.72
2022-11-07T15:09:33.698Z,100094.06
2022-11-07T15:11:39.533Z,100102.06
2022-11-07T15:13:43.916Z,100088.41
2022-11-07T15:15:48.446Z,100091.78
2022-11-07T15:17:52.987Z,100097.03
2022-11-07T15:19:57.697Z,100095.41
2022-11-07T15:22:03.157Z,100100.44
2022-11-07T15:24:27.730Z,100096.16
2022-11-07T15:26:33.183Z,100099.00
2022-11-07T15:28:47.561Z,100094.63
2022-11-07T15:30:52.172Z,100104.88
2022-11-07T15:32:55.459Z,100099.22
2022-11-07T15:35:12.542Z,100109.06
2022-11-07T15:37:24.508Z,100105.53
2022-11-07T15:39:27.681Z,100100.31
2022-11-07T15:41:30.592Z,100113.41
2022-11-07T15:43:33.939Z,100112.06
2022-11-07T15:45:38.594Z,100116.47
2022-11-07T15:47:41.899Z,100105.84
2022-11-07T15:49:45.347Z,100095.97
2022-11-07T15:51:48.411Z,100099.75
2022-11-07T15:53:51.472Z,100100.53
2022-11-07T15:55:55.644Z,100103.53
2022-11-07T15:57:58.555Z,100105.16
2022-11-07T16:00:02.335Z,100115.13
2022-11-07T16:02:18.736Z,100118.78
2022-11-07T16:04:24.622Z,100119.56
2022-11-07T16:06:30.590Z,100127.91
2022-11-07T16:08:36.441Z,100125.16
2022-11-07T16:10:47.242Z,100120.97
2022-11-07T16:12:50.586Z,100128.94
2022-11-07T16:14:55.739Z,100128.00
2022-11-07T16:16:58.663Z,100133.19
2022-11-07T16:19:03.135Z,100124.78
2022-11-07T16:21:06.903Z,100124.34
2022-11-07T16:23:10.259Z,100134.03
2022-11-07T16:25:21.503Z,100137.28
2022-11-07T16:27:25.505Z,100133.00
2022-11-07T16:29:28.763Z,100136.78
2022-11-07T16:31:33.445Z,100133.38
2022-11-07T16:33:36.353Z,100135.25
2022-11-07T16:35:42.026Z,100141.56
2022-11-07T16:37:44.901Z,100143.88
2022-11-07T16:39:48.021Z,100143.78
2022-11-07T16:41:51.685Z,100140.28
2022-11-07T16:43:54.684Z,100139.16
2022-11-07T16:45:57.909Z,100145.34
2022-11-07T16:48:00.985Z,100139.34
2022-11-07T16:50:05.754Z,100140.03
2022-11-07T16:52:14.546Z,100143.50
2022-11-07T16:54:17.624Z,100140.75
2022-11-07T16:56:25.629Z,100142.41
2022-11-07T16:58:30.040Z,100141.03
2022-11-07T17:00:32.982Z,100140.69
2022-11-07T17:02:36.215Z,100145.06
2022-11-07T17:04:40.304Z,100145.06
2022-11-07T17:06:47.614Z,100149.25
2022-11-07T17:08:52.604Z,100159.00
2022-11-07T17:10:55.569Z,100143.94
2022-11-07T17:12:58.754Z,100159.78
2022-11-07T17:15:02.418Z,100154.38
2022-11-07T17:17:06.439Z,100155.56
2022-11-07T17:19:11.127Z,100158.13
2022-11-07T17:21:27.944Z,100152.56
2022-11-07T17:23:31.030Z,100156.53
2022-11-07T17:25:35.640Z,100159.88
2022-11-07T17:27:41.203Z,100155.66
2022-11-07T17:29:44.756Z,100141.72
2022-11-07T17:31:48.191Z,100141.91
2022-11-07T17:33:51.797Z,100149.78
2022-11-07T17:36:00.016Z,100162.09
2022-11-07T17:38:03.719Z,100147.72
2022-11-07T17:40:07.344Z,100156.44
2022-11-07T17:42:11.683Z,100164.41
2022-11-07T17:44:15.310Z,100160.13
2022-11-07T17:46:21.500Z,100161.94
2022-11-07T17:48:24.598Z,100169.03
2022-11-07T17:50:27.846Z,100174.25
2022-11-07T17:52:31.258Z,100153.00
2022-11-07T17:54:34.131Z,100162.53
2022-11-07T17:56:37.275Z,100155.75
2022-11-07T17:58:41.715Z,100171.41
2022-11-07T18:00:44.616Z,100167.84
2022-11-07T18:02:49.320Z,100168.56
2022-11-07T18:04:52.762Z,100172.38
2022-11-07T18:06:55.705Z,100176.63
2022-11-07T18:09:00.164Z,100176.53
2022-11-07T18:11:04.212Z,100176.03
2022-11-07T18:13:08.899Z,100179.38
2022-11-07T18:15:14.002Z,100171.59
2022-11-07T18:17:16.892Z,100175.22
2022-11-07T18:19:21.105Z,100169.91
2022-11-07T18:21:24.083Z,100168.09
2022-11-07T18:23:27.042Z,100167.88
2022-11-07T18:25:31.048Z,100166.38
2022-11-07T18:27:34.121Z,100162.09
2022-11-07T18:29:37.425Z,100164.00
2022-11-07T18:31:42.117Z,100166.81
2022-11-07T18:33:45.366Z,100171.97
2022-11-07T18:35:48.646Z,100165.34
2022-11-07T18:37:52.610Z,100167.25
2022-11-07T18:39:56.703Z,100162.78
2022-11-07T18:41:59.669Z,100177.00
2022-11-07T18:44:05.102Z,100175.13
2022-11-07T18:46:09.666Z,100168.16
2022-11-07T18:48:14.495Z,100168.09
2022-11-07T18:50:17.816Z,100160.31
2022-11-07T18:52:20.697Z,100179.56
2022-11-07T18:54:25.794Z,100168.94
2022-11-07T18:56:29.087Z,100181.94
2022-11-07T18:58:33.193Z,100169.81
2022-11-07T19:00:36.491Z,100161.94
2022-11-07T19:02:39.633Z,100172.72
2022-11-07T19:04:45.290Z,100165.34
2022-11-07T19:07:05.028Z,100165.34
2022-11-07T19:09:08.010Z,100170.50
2022-11-07T19:11:13.427Z,100166.28
2022-11-07T19:13:16.571Z,100168.28
2022-11-07T19:15:23.126Z,100175.22
2022-11-07T19:17:26.694Z,100177.09
2022-11-07T19:19:32.174Z,100167.25
2022-11-07T19:21:39.128Z,100167.41
2022-11-07T19:23:44.404Z,100167.25
2022-11-07T19:25:47.617Z,100169.13
2022-11-07T19:27:51.641Z,100167.25
2022-11-07T19:29:54.586Z,100177.00
2022-11-07T19:31:57.702Z,100166.97
2022-11-07T19:34:01.241Z,100167.25
2022-11-07T19:36:06.146Z,100167.06
2022-11-07T19:38:12.053Z,100153.97
2022-11-07T19:40:15.004Z,100171.69
2022-11-07T19:42:18.069Z,100169.22
2022-11-07T19:44:21.331Z,100170.53
2022-11-07T19:46:24.765Z,100162.69
2022-11-07T19:48:29.834Z,100180.78
2022-11-07T19:50:33.102Z,100176.03
2022-11-07T19:52:36.238Z,100166.38
2022-11-07T19:54:42.271Z,100167.75
2022-11-07T19:56:45.621Z,100168.94
2022-11-07T19:58:48.729Z,100171.31
2022-11-07T20:00:51.767Z,100174.06
2022-11-07T20:02:55.251Z,100170.50
2022-11-07T20:04:58.583Z,100169.44
2022-11-07T20:07:01.522Z,100173.13
2022-11-07T20:09:06.345Z,100175.94
2022-11-07T20:11:14.060Z,100176.47
2022-11-07T20:13:17.282Z,100179.19
2022-11-07T20:15:20.719Z,100181.50
2022-11-07T20:17:23.575Z,100184.34
2022-11-07T20:19:28.560Z,100179.88
2022-11-07T20:21:32.447Z,100207.28
2022-11-07T20:23:35.643Z,100188.69
2022-11-07T20:25:41.925Z,100183.97
2022-11-07T20:27:46.556Z,100170.78
2022-11-07T20:29:49.959Z,100181.59
2022-11-07T20:31:53.415Z,100182.28
2022-11-07T20:33:59.169Z,100181.41
2022-11-07T20:36:03.514Z,100185.03
2022-11-07T20:38:06.815Z,100174.75
2022-11-07T20:40:11.665Z,100190.75
2022-11-07T20:42:14.960Z,100179.97
2022-11-07T20:44:23.172Z,100193.41
2022-11-07T20:46:26.895Z,100187.44
2022-11-07T20:48:29.971Z,100202.34
2022-11-07T20:50:33.075Z,100180.34
2022-11-07T20:52:36.998Z,100186.41
2022-11-07T20:54:40.757Z,100183.75
2022-11-07T20:56:44.088Z,100179.19
2022-11-07T20:58:47.580Z,100180.53
2022-11-07T21:00:53.065Z,100179.66
2022-11-07T21:02:56.209Z,100183.88
2022-11-07T21:07:23.866Z,100180.81
2022-11-07T21:09:28.525Z,100182.34
2022-11-07T21:11:33.306Z,100189.72
2022-11-07T21:13:37.114Z,100180.47
2022-11-07T21:15:43.757Z,100182.63
2022-11-07T21:17:49.810Z,100183.22
2022-11-07T21:19:53.705Z,100185.72
2022-11-07T21:21:56.731Z,100185.38
2022-11-07T21:24:01.485Z,100188.72
2022-11-07T21:26:08.712Z,100184.72
2022-11-07T21:28:13.290Z,100188.88
2022-11-07T21:30:21.424Z,100191.25
2022-11-07T21:32:24.376Z,100191.81
2022-11-07T21:34:31.083Z,100179.69
2022-11-07T21:36:34.612Z,100196.41
2022-11-07T21:38:37.629Z,100190.94
2022-11-07T21:40:40.613Z,100184.00
2022-11-07T21:42:44.571Z,100184.31
2022-11-07T21:44:48.024Z,100193.16
2022-11-07T21:46:51.032Z,100195.97
2022-11-07T21:48:54.668Z,100191.59
2022-11-07T21:50:58.891Z,100192.47
2022-11-07T21:53:01.730Z,100188.25
2022-11-07T21:55:04.861Z,100206.16
2022-11-07T21:57:07.715Z,100191.28
2022-11-07T21:59:14.243Z,100199.41
2022-11-07T22:01:19.096Z,100193.16
2022-11-07T22:03:43.792Z,100203.06
2022-11-07T22:05:47.430Z,100203.25
2022-11-07T22:07:51.945Z,100204.94
2022-11-07T22:09:55.779Z,100207.53
2022-11-07T22:11:58.687Z,100199.72
2022-11-07T22:14:01.687Z,100196.47
2022-11-07T22:16:06.852Z,100188.69
2022-11-07T22:18:10.020Z,100201.44
2022-11-07T22:20:14.225Z,100193.41
2022-11-07T22:22:17.255Z,100193.50
2022-11-07T22:24:21.513Z,100189.47
2022-11-07T22:26:26.081Z,100185.84
2022-11-07T22:28:28.950Z,100186.03
2022-11-07T22:30:31.844Z,100187.75
2022-11-07T22:32:34.905Z,100184.94
2022-11-07T22:34:37.762Z,100179.84
2022-11-07T22:36:40.894Z,100186.03
2022-11-07T22:38:43.998Z,100177.16
2022-11-07T22:40:48.731Z,100180.22
2022-11-07T22:42:52.224Z,100176.69
2022-11-07T22:44:55.445Z,100184.66
2022-11-07T22:46:59.428Z,100181.16
2022-11-07T22:49:02.293Z,100183.13
2022-11-07T22:51:05.359Z,100179.59
2022-11-07T22:53:08.241Z,100185.78
2022-11-07T22:55:15.088Z,100179.25
2022-11-07T22:57:19.870Z,100168.41
2022-11-07T22:59:22.869Z,100172.22
2022-11-07T23:01:27.859Z,100175.66
2022-11-07T23:03:31.970Z,100176.63
2022-11-07T23:05:37.249Z,100171.78
2022-11-07T23:07:40.333Z,100173.50
2022-11-07T23:09:43.136Z,100169.31
2022-11-07T23:11:48.071Z,100172.06
2022-11-07T23:14:00.290Z,100169.47
2022-11-07T23:16:03.139Z,100175.63
2022-11-07T23:18:06.075Z,100171.19
2022-11-07T23:20:11.253Z,100166.06
2022-11-07T23:22:14.403Z,100164.94
2022-11-07T23:24:18.067Z,100168.09
2022-11-07T23:26:21.442Z,100160.06
2022-11-07T23:28:24.338Z,100171.94
2022-11-07T23:30:30.409Z,100159.38
2022-11-07T23:32:33.300Z,100164.59
2022-11-07T23:34:36.596Z,100163.63
2022-11-07T23:36:40.824Z,100168.59
2022-11-07T23:39:06.230Z,100155.00
2022-11-07T23:41:10.402Z,100156.94
2022-11-07T23:43:13.254Z,100157.91
2022-11-07T23:45:33.522Z,100157.97
2022-11-07T23:47:55.201Z,100159.50
2022-11-07T23:50:15.365Z,100166.72
2022-11-07T23:52:19.206Z,100155.34
2022-11-07T23:54:40.792Z,100159.84
2022-11-07T23:56:44.615Z,100162.59
2022-11-07T23:59:05.427Z,100158.47
